createdAt,value
2023-03-26T00:05:15.010Z,0
2023-03-26T00:40:20.694Z,0
2023-03-26T01:00:19.472Z,0
2023-03-26T01:05:34.451Z,0
2023-03-26T01:10:08.453Z,0
2023-03-26T01:15:08.874Z,0
2023-03-26T01:20:10.105Z,0
2023-03-26T01:25:06.821Z,0
2023-03-26T01:30:09.503Z,0
2023-03-26T01:35:05.208Z,0
2023-03-26T01:40:05.037Z,0
2023-03-26T01:45:03.821Z,0
2023-03-26T01:50:02.023Z,0
2023-03-26T01:55:01.683Z,0
2023-03-26T02:00:02.543Z,0
2023-03-26T02:01:50.569Z,0
2023-03-26T02:06:33.470Z,0
2023-03-26T02:16:31.672Z,0
2023-03-26T02:21:31.633Z,0
2023-03-26T02:26:32.230Z,0
2023-03-26T02:31:32.680Z,0
2023-03-26T02:36:30.933Z,0
2023-03-26T02:41:29.108Z,0
2023-03-26T02:46:31.681Z,0
2023-03-26T02:51:27.897Z,0
2023-03-26T02:56:27.342Z,0
2023-03-26T03:00:32.744Z,0
2023-03-26T03:05:29.745Z,0
2023-03-26T03:10:29.161Z,0
2023-03-26T03:15:28.947Z,0
2023-03-26T03:20:28.183Z,0
2023-03-26T03:25:28.530Z,0
2023-03-26T03:30:28.301Z,0
2023-03-26T03:35:26.650Z,0
2023-03-26T03:40:26.453Z,0
2023-03-26T03:45:27.080Z,0
2023-03-26T03:50:25.721Z,0
2023-03-26T03:55:26.039Z,0
2023-03-26T04:10:14.260Z,0
2023-03-26T04:20:12.881Z,0
2023-03-26T04:25:12.484Z,0
2023-03-26T04:30:11.320Z,0
2023-03-26T04:35:09.659Z,0
2023-03-26T04:40:08.535Z,0
2023-03-26T04:45:08.485Z,0
2023-03-26T04:50:08.530Z,0
2023-03-26T04:55:07.584Z,0
2023-03-26T05:00:07.902Z,0
2023-03-26T05:05:08.193Z,0
2023-03-26T05:10:08.933Z,0
2023-03-26T05:15:06.538Z,0
2023-03-26T05:20:05.169Z,0
2023-03-26T05:25:05.315Z,0
2023-03-26T05:30:06.777Z,0
2023-03-26T05:35:05.070Z,0
2023-03-26T05:40:03.647Z,0
2023-03-26T05:45:03.184Z,0
2023-03-26T05:50:04.257Z,0
2023-03-26T05:55:00.473Z,0
2023-03-26T06:00:00.475Z,0
2023-03-26T06:01:48.485Z,0
2023-03-26T06:06:33.544Z,0
2023-03-26T06:11:33.171Z,0
2023-03-26T06:16:47.090Z,0
2023-03-26T06:21:30.429Z,0
2023-03-26T06:26:28.655Z,0
2023-03-26T06:31:28.566Z,0
2023-03-26T06:36:28.632Z,0
2023-03-26T06:41:28.963Z,0
2023-03-26T06:51:28.054Z,0.1
2023-03-26T06:56:30.007Z,0.1
2023-03-26T07:00:46.430Z,0.1
2023-03-26T07:05:46.711Z,0.1
2023-03-26T07:10:45.584Z,0.1
2023-03-26T07:15:45.315Z,0.4
2023-03-26T07:20:45.281Z,0.4
2023-03-26T07:25:44.851Z,0.6
2023-03-26T07:30:45.157Z,0.6
2023-03-26T07:35:46.157Z,0.8
2023-03-26T07:40:42.046Z,1.1
2023-03-26T07:45:42.114Z,1
2023-03-26T07:50:41.118Z,1
2023-03-26T07:55:41.129Z,1.2
2023-03-26T07:59:42.728Z,1.3
2023-03-26T08:05:06.977Z,1.5
2023-03-26T08:09:41.433Z,1.5
2023-03-26T08:14:41.689Z,1.5
2023-03-26T08:19:41.923Z,1.5
2023-03-26T08:24:55.251Z,1.5
2023-03-26T08:29:40.060Z,1.8
2023-03-26T08:34:41.855Z,1.6
2023-03-26T08:39:39.852Z,1.3
2023-03-26T08:44:37.898Z,1.3
2023-03-26T08:49:39.666Z,1.3
2023-03-26T08:54:37.454Z,1
2023-03-26T09:01:23.584Z,0.8
2023-03-26T09:05:56.032Z,0.5
2023-03-26T09:10:56.135Z,0.5
2023-03-26T09:15:57.417Z,0.6
2023-03-26T09:20:53.873Z,0.4
2023-03-26T09:25:53.857Z,0.1
2023-03-26T09:30:54.842Z,0.1
2023-03-26T09:35:55.823Z,0.1
2023-03-26T09:40:52.916Z,0.1
2023-03-26T09:45:51.563Z,0.1
2023-03-26T09:50:52.227Z,0.1
2023-03-26T09:55:50.579Z,0.1
2023-03-26T10:00:10.170Z,0.1
2023-03-26T10:01:57.834Z,0.1
2023-03-26T10:06:30.996Z,0.1
2023-03-26T10:11:30.654Z,0
2023-03-26T10:16:29.321Z,0
2023-03-26T10:21:30.032Z,0
2023-03-26T10:26:28.233Z,0
2023-03-26T10:31:29.222Z,0
2023-03-26T10:36:29.323Z,0
2023-03-26T10:41:28.849Z,0
2023-03-26T10:46:31.092Z,0
2023-03-26T10:51:37.826Z,0
2023-03-26T10:56:29.827Z,0
2023-03-26T11:00:49.056Z,0
2023-03-26T11:05:49.618Z,0
2023-03-26T11:10:49.071Z,0
2023-03-26T11:15:59.499Z,0
2023-03-26T11:20:46.783Z,0
2023-03-26T11:25:46.714Z,0
2023-03-26T11:30:56.952Z,0
2023-03-26T11:36:01.304Z,0
2023-03-26T11:40:44.671Z,0
2023-03-26T11:45:45.167Z,0
2023-03-26T11:50:44.768Z,0
2023-03-26T11:57:59.387Z,0
2023-03-26T12:00:33.519Z,0
2023-03-26T12:05:32.825Z,0
2023-03-26T12:10:50.986Z,0
2023-03-26T12:15:31.046Z,0
2023-03-26T12:20:30.155Z,0
2023-03-26T12:25:29.607Z,0
2023-03-26T12:31:22.786Z,0
2023-03-26T12:35:29.362Z,0
2023-03-26T12:44:58.707Z,0
2023-03-26T12:48:40.396Z,0
2023-03-26T12:50:33.825Z,0
2023-03-26T12:55:33.514Z,0
2023-03-26T13:00:12.212Z,0
2023-03-26T13:05:25.443Z,0
2023-03-26T13:10:13.112Z,0
2023-03-26T13:15:10.209Z,0
2023-03-26T13:25:08.597Z,0
2023-03-26T13:35:09.087Z,0
2023-03-26T13:45:06.191Z,0
2023-03-26T14:00:10.421Z,0
2023-03-26T14:01:59.390Z,0
2023-03-26T14:06:32.857Z,0
2023-03-26T14:11:33.619Z,0
2023-03-26T14:16:30.210Z,0
2023-03-26T14:21:29.488Z,0
2023-03-26T14:26:29.356Z,0.1
2023-03-26T14:31:27.660Z,0.3
2023-03-26T14:36:27.821Z,0.5
2023-03-26T14:41:26.580Z,0.8
2023-03-26T14:46:15.240Z,1
2023-03-26T14:51:16.026Z,1
2023-03-26T14:56:15.695Z,1.1
2023-03-26T15:00:41.490Z,1.1
2023-03-26T15:05:37.830Z,1.1
2023-03-26T15:10:38.180Z,1.1
2023-03-26T15:15:36.802Z,1.1
2023-03-26T15:20:36.481Z,1.1
2023-03-26T15:25:36.938Z,1
2023-03-26T15:30:36.226Z,0.8
2023-03-26T15:35:37.242Z,0.6
2023-03-26T15:40:35.324Z,0.3
2023-03-26T15:45:58.778Z,0.1
2023-03-26T15:50:34.807Z,0.1
2023-03-26T15:55:33.549Z,0
2023-03-26T16:00:28.804Z,0
2023-03-26T16:05:34.048Z,0
2023-03-26T16:10:27.789Z,0
2023-03-26T16:15:27.830Z,0
2023-03-26T16:20:26.183Z,0
2023-03-26T16:25:49.369Z,0
2023-03-26T16:30:26.729Z,0
2023-03-26T16:35:14.864Z,0
2023-03-26T16:40:14.342Z,0
2023-03-26T16:45:13.871Z,0
2023-03-26T16:50:30.203Z,0
2023-03-26T16:55:12.875Z,0
2023-03-26T17:05:11.281Z,0
2023-03-26T17:10:13.394Z,0
2023-03-26T17:20:08.630Z,0
2023-03-26T17:25:09.620Z,0
2023-03-26T17:30:07.638Z,0
2023-03-26T17:35:08.043Z,0
2023-03-26T17:40:10.248Z,0
2023-03-26T17:45:05.560Z,0
2023-03-26T17:50:04.421Z,0
2023-03-26T18:05:03.359Z,0
2023-03-26T18:10:03.975Z,0
2023-03-26T18:15:02.858Z,0
2023-03-26T18:19:59.680Z,0
2023-03-26T18:25:04.368Z,0
2023-03-26T18:30:02.057Z,0
2023-03-26T18:34:58.843Z,0
2023-03-26T18:40:03.252Z,0
2023-03-26T18:45:01.570Z,0
2023-03-26T18:49:58.326Z,0
2023-03-26T18:54:57.834Z,0
2023-03-26T19:00:02.700Z,0
2023-03-26T19:01:58.368Z,0
2023-03-26T19:06:29.530Z,0
2023-03-26T19:11:29.631Z,0
2023-03-26T19:16:27.608Z,0
2023-03-26T19:21:27.276Z,0
2023-03-26T19:26:27.267Z,0
2023-03-26T19:31:26.842Z,0
2023-03-26T19:36:27.809Z,0
2023-03-26T19:41:27.003Z,0
2023-03-26T19:46:22.030Z,0
2023-03-26T19:51:15.835Z,0
2023-03-26T19:56:26.074Z,0
2023-03-26T20:00:44.193Z,0
2023-03-26T20:05:36.005Z,0
2023-03-26T20:10:35.514Z,0
2023-03-26T20:15:35.564Z,0
2023-03-26T20:20:34.835Z,0
2023-03-26T20:25:35.928Z,0
2023-03-26T20:30:37.679Z,0
2023-03-26T20:35:47.050Z,0
2023-03-26T20:40:31.443Z,0
2023-03-26T20:45:31.750Z,0.1
2023-03-26T20:50:28.894Z,0.1
2023-03-26T20:55:29.130Z,0.1
2023-03-26T21:00:26.914Z,0.1
2023-03-26T21:05:14.274Z,0.3
2023-03-26T21:10:13.604Z,0.3
2023-03-26T21:15:22.739Z,0.3
2023-03-26T21:20:13.133Z,0.3
2023-03-26T21:25:13.316Z,0.3
2023-03-26T21:30:10.923Z,0.3
2023-03-26T21:35:10.388Z,0.3
2023-03-26T21:40:10.541Z,0.5
2023-03-26T21:45:09.534Z,0.3
2023-03-26T21:50:09.704Z,0.3
2023-03-26T22:00:09.480Z,0.1
2023-03-26T22:05:08.423Z,0.1
2023-03-26T22:10:19.072Z,0.1
2023-03-26T22:15:06.803Z,0.2
2023-03-26T22:20:06.449Z,0.2
2023-03-26T22:25:05.658Z,0.2
2023-03-26T22:30:05.772Z,0.2
2023-03-26T22:35:03.343Z,0.1
2023-03-26T22:40:03.338Z,0.1
2023-03-26T22:45:13.505Z,0.1
2023-03-26T22:50:02.359Z,0.1
2023-03-26T22:55:01.640Z,0.1
2023-03-26T23:01:50.445Z,0.1
2023-03-26T23:06:22.738Z,0.3
2023-03-26T23:11:30.927Z,0.2
2023-03-26T23:16:29.834Z,0.3
2023-03-26T23:21:33.351Z,0.5
2023-03-26T23:26:29.174Z,0.5
2023-03-26T23:31:29.439Z,0.5
2023-03-26T23:36:29.603Z,0.6
2023-03-26T23:41:40.561Z,0.7
2023-03-26T23:46:27.365Z,0.7
2023-03-26T23:51:36.161Z,0.7
2023-03-26T23:56:28.100Z,0.6
